EAL700 EHEH-TNCC
Flight info
| Callsign | EAL700 |
|---|---|
| Flight time | N/A |
| Altitude | 36000 |
| Route | ABNED L980 LOGAN DCT SAM N19 ADKIK DCT JOZMA DCT ARKIL/M083F320 DCT DINIM DCT 50N020W 47N030W 43N040W/M083F340 37N050W/M083F360 2508N05954W/M083F380 DCT OPAUL/N0480F380 L327 SCAPA SCAPA1B |
| Aircraft | B772/H-SDE2E3FGHIJ5LORVWXY/LB1D1 |
Departure
| Time | 2026-05-06 06:36 |
|---|---|
| Airport | Eindhoven Airport (EHEH) |
Arrival
| Time | N/A |
|---|---|
| Airport | Hato International Airport (TNCC) |
| Time | Latitude | Longitude | Altitude | Speed | Heading |
|---|---|---|---|---|---|
| 2026-05-06 06:26 | 51.45763 | 5.38914 | 79 ft | 0 kts | 125° |
| 2026-05-06 06:29 | 51.45760 | 5.38925 | 79 ft | 0 kts | 111° |
| 2026-05-06 06:29 | 51.45763 | 5.38937 | 79 ft | 1 kts | 69° |
| 2026-05-06 06:30 | 51.45785 | 5.38963 | 84 ft | 5 kts | 30° |
| 2026-05-06 06:30 | 51.45814 | 5.38984 | 84 ft | 5 kts | 24° |
| 2026-05-06 06:30 | 51.45846 | 5.39006 | 84 ft | 5 kts | 23° |
| 2026-05-06 06:30 | 51.45877 | 5.39027 | 81 ft | 5 kts | 21° |
| 2026-05-06 06:31 | 51.45916 | 5.39031 | 82 ft | 6 kts | 350° |
| 2026-05-06 06:31 | 51.45951 | 5.39002 | 79 ft | 6 kts | 327° |
| 2026-05-06 06:31 | 51.45979 | 5.38957 | 84 ft | 6 kts | 308° |
| 2026-05-06 06:31 | 51.46003 | 5.38907 | 83 ft | 6 kts | 307° |
| 2026-05-06 06:32 | 51.46026 | 5.38855 | 87 ft | 6 kts | 304° |
| 2026-05-06 06:32 | 51.46031 | 5.38843 | 87 ft | 0 kts | 304° |
| 2026-05-06 06:32 | 51.46045 | 5.38810 | 87 ft | 8 kts | 303° |
| 2026-05-06 06:33 | 51.46076 | 5.38736 | 83 ft | 8 kts | 303° |
| 2026-05-06 06:33 | 51.46093 | 5.38681 | 84 ft | 2 kts | 271° |
| 2026-05-06 06:33 | 51.46085 | 5.38664 | 85 ft | 2 kts | 229° |
| 2026-05-06 06:33 | 51.46076 | 5.38652 | 85 ft | 0 kts | 218° |
| 2026-05-06 06:35 | 51.46076 | 5.38651 | 83 ft | 1 kts | 218° |
| 2026-05-06 06:35 | 51.45953 | 5.38500 | 86 ft | 58 kts | 215° |
| 2026-05-06 06:35 | 51.45393 | 5.37881 | 84 ft | 134 kts | 215° |
| 2026-05-06 06:36 | 51.44456 | 5.36820 | 235 ft | 186 kts | 216° |
| 2026-05-06 06:36 | 51.43416 | 5.35603 | 1024 ft | 196 kts | 215° |
| 2026-05-06 06:36 | 51.42290 | 5.34369 | 2097 ft | 199 kts | 214° |
| 2026-05-06 06:36 | 51.41096 | 5.33052 | 2890 ft | 218 kts | 215° |
| 2026-05-06 06:37 | 51.39815 | 5.31620 | 3726 ft | 231 kts | 216° |
| 2026-05-06 06:37 | 51.38713 | 5.29742 | 4573 ft | 236 kts | 245° |
| 2026-05-06 06:37 | 51.38228 | 5.27259 | 5433 ft | 244 kts | 264° |
| 2026-05-06 06:37 | 51.38446 | 5.24435 | 5676 ft | 261 kts | 292° |
| 2026-05-06 06:38 | 51.39152 | 5.21744 | 6017 ft | 270 kts | 294° |
| 2026-05-06 06:38 | 51.39883 | 5.18940 | 6555 ft | 276 kts | 293° |
| 2026-05-06 06:38 | 51.40481 | 5.16591 | 7077 ft | 277 kts | 293° |
| 2026-05-06 06:38 | 51.41199 | 5.13723 | 7710 ft | 279 kts | 292° |
| 2026-05-06 06:39 | 51.41915 | 5.10800 | 8304 ft | 283 kts | 292° |
| 2026-05-06 06:39 | 51.42625 | 5.07855 | 8885 ft | 285 kts | 291° |
| 2026-05-06 06:39 | 51.43337 | 5.04871 | 9471 ft | 289 kts | 291° |
| 2026-05-06 06:39 | 51.44051 | 5.01852 | 10069 ft | 291 kts | 291° |
| 2026-05-06 06:40 | 51.44645 | 4.99308 | 10282 ft | 305 kts | 290° |
| 2026-05-06 06:40 | 51.45409 | 4.96022 | 10455 ft | 325 kts | 290° |
| 2026-05-06 06:40 | 51.46222 | 4.92509 | 10618 ft | 346 kts | 290° |
| 2026-05-06 06:40 | 51.47084 | 4.88770 | 10858 ft | 365 kts | 290° |
| 2026-05-06 06:41 | 51.47947 | 4.85012 | 11339 ft | 374 kts | 290° |
| 2026-05-06 06:41 | 51.48840 | 4.81119 | 11998 ft | 380 kts | 290° |
| 2026-05-06 06:41 | 51.49751 | 4.77134 | 12767 ft | 383 kts | 290° |
| 2026-05-06 06:41 | 51.50673 | 4.73093 | 13564 ft | 386 kts | 290° |
| 2026-05-06 06:42 | 51.51600 | 4.69024 | 14300 ft | 390 kts | 290° |
| 2026-05-06 06:42 | 51.52536 | 4.64908 | 15008 ft | 395 kts | 290° |
| 2026-05-06 06:42 | 51.53483 | 4.60732 | 15700 ft | 400 kts | 289° |
| 2026-05-06 06:42 | 51.54438 | 4.56504 | 16396 ft | 404 kts | 289° |
| 2026-05-06 06:43 | 51.55400 | 4.52244 | 17080 ft | 408 kts | 289° |
| 2026-05-06 06:43 | 51.56370 | 4.47943 | 17744 ft | 412 kts | 289° |
| 2026-05-06 06:43 | 51.57352 | 4.43579 | 18399 ft | 416 kts | 289° |
| 2026-05-06 06:43 | 51.58332 | 4.39217 | 19033 ft | 420 kts | 289° |
| 2026-05-06 06:44 | 51.59326 | 4.34772 | 19672 ft | 424 kts | 289° |
| 2026-05-06 06:44 | 51.60318 | 4.30331 | 20308 ft | 428 kts | 289° |
| 2026-05-06 06:44 | 51.61324 | 4.25821 | 20906 ft | 432 kts | 289° |
| 2026-05-06 06:44 | 51.62303 | 4.21445 | 21469 ft | 436 kts | 289° |
| 2026-05-06 06:45 | 51.63334 | 4.16830 | 22032 ft | 439 kts | 289° |
| 2026-05-06 06:45 | 51.64370 | 4.12172 | 22570 ft | 443 kts | 289° |
| 2026-05-06 06:45 | 51.65409 | 4.07479 | 23086 ft | 446 kts | 289° |
| 2026-05-06 06:45 | 51.66439 | 4.02813 | 23570 ft | 449 kts | 289° |
| 2026-05-06 06:46 | 51.67498 | 3.98000 | 24053 ft | 453 kts | 289° |
| 2026-05-06 06:46 | 51.68552 | 3.93199 | 24512 ft | 456 kts | 289° |
| 2026-05-06 06:46 | 51.69611 | 3.88357 | 24951 ft | 458 kts | 289° |
| 2026-05-06 06:46 | 51.70672 | 3.83494 | 25379 ft | 461 kts | 289° |
| 2026-05-06 06:47 | 51.71738 | 3.78603 | 25796 ft | 463 kts | 289° |
| 2026-05-06 06:47 | 51.72808 | 3.73677 | 26204 ft | 466 kts | 289° |
| 2026-05-06 06:47 | 51.73865 | 3.68805 | 26573 ft | 468 kts | 289° |
| 2026-05-06 06:47 | 51.74938 | 3.63840 | 26933 ft | 470 kts | 289° |
| 2026-05-06 06:48 | 51.76018 | 3.58834 | 27291 ft | 473 kts | 289° |
| 2026-05-06 06:48 | 51.77114 | 3.53749 | 27631 ft | 475 kts | 289° |
| 2026-05-06 06:48 | 51.78198 | 3.48701 | 27959 ft | 476 kts | 289° |
| 2026-05-06 06:48 | 51.79284 | 3.43630 | 28254 ft | 479 kts | 288° |
| 2026-05-06 06:49 | 51.80358 | 3.38604 | 28538 ft | 480 kts | 288° |
| 2026-05-06 06:49 | 51.81458 | 3.33443 | 28810 ft | 482 kts | 288° |
| 2026-05-06 06:49 | 51.82551 | 3.28305 | 29064 ft | 484 kts | 288° |
| 2026-05-06 06:49 | 51.83591 | 3.23193 | 29283 ft | 485 kts | 285° |
| 2026-05-06 06:50 | 51.84173 | 3.18894 | 29449 ft | 486 kts | 278° |
| 2026-05-06 06:50 | 51.84495 | 3.13452 | 29684 ft | 486 kts | 271° |
| 2026-05-06 06:50 | 51.84425 | 3.07981 | 29974 ft | 485 kts | 264° |
| 2026-05-06 06:50 | 51.84035 | 3.02505 | 30294 ft | 483 kts | 263° |
| 2026-05-06 06:51 | 51.83644 | 2.97186 | 30581 ft | 483 kts | 263° |
| 2026-05-06 06:51 | 51.83265 | 2.91797 | 30854 ft | 482 kts | 263° |
| 2026-05-06 06:51 | 51.82902 | 2.86409 | 31122 ft | 482 kts | 263° |
| 2026-05-06 06:51 | 51.82548 | 2.81028 | 31394 ft | 481 kts | 263° |
| 2026-05-06 06:52 | 51.82197 | 2.75671 | 31656 ft | 480 kts | 263° |
| 2026-05-06 06:52 | 51.81836 | 2.70230 | 31924 ft | 479 kts | 263° |
| 2026-05-06 06:52 | 51.81482 | 2.64944 | 32186 ft | 478 kts | 263° |
| 2026-05-06 06:52 | 51.81118 | 2.59610 | 32438 ft | 478 kts | 263° |
| 2026-05-06 06:53 | 51.80820 | 2.55289 | 32632 ft | 477 kts | 263° |
| 2026-05-06 06:53 | 51.80448 | 2.49955 | 32870 ft | 477 kts | 263° |
| 2026-05-06 06:53 | 51.80076 | 2.44630 | 33122 ft | 476 kts | 263° |
| 2026-05-06 06:53 | 51.79703 | 2.39333 | 33367 ft | 475 kts | 263° |
| 2026-05-06 06:54 | 51.79331 | 2.34053 | 33603 ft | 474 kts | 263° |
| 2026-05-06 06:54 | 51.78955 | 2.28742 | 33842 ft | 473 kts | 263° |
| 2026-05-06 06:54 | 51.78576 | 2.23452 | 34072 ft | 473 kts | 263° |
| 2026-05-06 06:54 | 51.78220 | 2.18188 | 34290 ft | 472 kts | 264° |
| 2026-05-06 06:55 | 51.77902 | 2.12837 | 34473 ft | 473 kts | 264° |
| 2026-05-06 06:55 | 51.77607 | 2.07629 | 34652 ft | 473 kts | 264° |
| 2026-05-06 06:55 | 51.77304 | 2.02274 | 34862 ft | 473 kts | 264° |
| 2026-05-06 06:55 | 51.76998 | 1.96997 | 35046 ft | 473 kts | 264° |
| 2026-05-06 06:56 | 51.76688 | 1.91779 | 35226 ft | 473 kts | 264° |
| 2026-05-06 06:56 | 51.76365 | 1.86433 | 35408 ft | 473 kts | 264° |
| 2026-05-06 06:56 | 51.76040 | 1.81152 | 35592 ft | 472 kts | 264° |
| 2026-05-06 06:56 | 51.75715 | 1.75854 | 35753 ft | 473 kts | 264° |
| 2026-05-06 06:57 | 51.75393 | 1.70645 | 35845 ft | 474 kts | 264° |
| 2026-05-06 06:57 | 51.74352 | 1.60254 | 35920 ft | 475 kts | 255° |
| 2026-05-06 06:58 | 51.72110 | 1.50203 | 35959 ft | 473 kts | 247° |
| 2026-05-06 06:58 | 51.69575 | 1.40415 | 35945 ft | 473 kts | 247° |
| 2026-05-06 06:59 | 51.67057 | 1.30630 | 35946 ft | 473 kts | 247° |
| 2026-05-06 06:59 | 51.64555 | 1.20848 | 35948 ft | 473 kts | 247° |
| 2026-05-06 07:00 | 51.62048 | 1.11059 | 35955 ft | 472 kts | 247° |
| 2026-05-06 07:00 | 51.59536 | 1.01289 | 35961 ft | 472 kts | 247° |
| 2026-05-06 07:01 | 51.57033 | 0.91607 | 35964 ft | 472 kts | 247° |
| 2026-05-06 07:01 | 51.54557 | 0.82068 | 35963 ft | 472 kts | 247° |
| 2026-05-06 07:02 | 51.52024 | 0.72350 | 35964 ft | 472 kts | 247° |
| 2026-05-06 07:02 | 51.49481 | 0.62635 | 35967 ft | 472 kts | 247° |
| 2026-05-06 07:03 | 51.47347 | 0.54510 | 35965 ft | 472 kts | 247° |
| 2026-05-06 07:03 | 51.44823 | 0.44940 | 35972 ft | 472 kts | 247° |
| 2026-05-06 07:04 | 51.42258 | 0.35260 | 35971 ft | 472 kts | 247° |
| 2026-05-06 07:04 | 51.39701 | 0.25655 | 35978 ft | 471 kts | 247° |
| 2026-05-06 07:05 | 51.37105 | 0.15936 | 35982 ft | 471 kts | 246° |
| 2026-05-06 07:05 | 51.34518 | 0.06294 | 35974 ft | 472 kts | 246° |
| 2026-05-06 07:06 | 51.31935 | -0.03290 | 35970 ft | 472 kts | 246° |
| 2026-05-06 07:06 | 51.29329 | -0.12923 | 35970 ft | 472 kts | 247° |
| 2026-05-06 07:07 | 51.26773 | -0.22332 | 35974 ft | 473 kts | 246° |
| 2026-05-06 07:07 | 51.24140 | -0.31983 | 35972 ft | 473 kts | 246° |
| 2026-05-06 07:08 | 51.21506 | -0.41604 | 35972 ft | 473 kts | 246° |
| 2026-05-06 07:08 | 51.18858 | -0.51235 | 35979 ft | 473 kts | 246° |
| 2026-05-06 07:09 | 51.16207 | -0.60829 | 35983 ft | 474 kts | 246° |
| 2026-05-06 07:09 | 51.13546 | -0.70419 | 35985 ft | 474 kts | 246° |
| 2026-05-06 07:10 | 51.10912 | -0.79882 | 35994 ft | 474 kts | 246° |
| 2026-05-06 07:10 | 51.08232 | -0.89471 | 35988 ft | 474 kts | 246° |
| 2026-05-06 07:11 | 51.05560 | -0.98991 | 35993 ft | 474 kts | 246° |
| 2026-05-06 07:11 | 51.02871 | -1.08530 | 35993 ft | 474 kts | 246° |
| 2026-05-06 07:12 | 51.00149 | -1.18153 | 35996 ft | 474 kts | 246° |
| 2026-05-06 07:12 | 50.97469 | -1.27595 | 35985 ft | 474 kts | 246° |
| 2026-05-06 07:13 | 50.95115 | -1.37336 | 35986 ft | 473 kts | 255° |
| 2026-05-06 07:13 | 50.93783 | -1.47542 | 35990 ft | 473 kts | 259° |
| 2026-05-06 07:14 | 50.92531 | -1.57684 | 35970 ft | 457 kts | 259° |
| 2026-05-06 07:14 | 50.91297 | -1.67329 | 35985 ft | 448 kts | 258° |
| 2026-05-06 07:15 | 50.90030 | -1.77072 | 36006 ft | 456 kts | 258° |
| 2026-05-06 07:15 | 50.88739 | -1.86942 | 35992 ft | 459 kts | 258° |
| 2026-05-06 07:16 | 50.87435 | -1.96862 | 35985 ft | 460 kts | 258° |
| 2026-05-06 07:16 | 50.86126 | -2.06761 | 35988 ft | 458 kts | 258° |
| 2026-05-06 07:17 | 50.84819 | -2.16602 | 35983 ft | 456 kts | 258° |
| 2026-05-06 07:17 | 50.83515 | -2.26383 | 35989 ft | 454 kts | 258° |
| 2026-05-06 07:18 | 50.82198 | -2.36179 | 36005 ft | 459 kts | 258° |
| 2026-05-06 07:18 | 50.80848 | -2.46161 | 36003 ft | 468 kts | 258° |
| 2026-05-06 07:19 | 50.79476 | -2.56273 | 36003 ft | 474 kts | 258° |
| 2026-05-06 07:19 | 50.78253 | -2.66505 | 35993 ft | 477 kts | 260° |
| 2026-05-06 07:20 | 50.77085 | -2.76844 | 35990 ft | 479 kts | 260° |
| 2026-05-06 07:20 | 50.75887 | -2.87216 | 36001 ft | 479 kts | 259° |
| 2026-05-06 07:21 | 50.74666 | -2.97532 | 35998 ft | 477 kts | 259° |
| 2026-05-06 07:21 | 50.73508 | -3.07190 | 35991 ft | 475 kts | 259° |
| 2026-05-06 07:22 | 50.72275 | -3.17406 | 35992 ft | 473 kts | 259° |
| 2026-05-06 07:22 | 50.71035 | -3.27605 | 35985 ft | 472 kts | 259° |
| 2026-05-06 07:23 | 50.69795 | -3.37742 | 35994 ft | 471 kts | 259° |
| 2026-05-06 07:23 | 50.68541 | -3.47912 | 35985 ft | 472 kts | 259° |
| 2026-05-06 07:24 | 50.67284 | -3.58019 | 35996 ft | 473 kts | 259° |
| 2026-05-06 07:24 | 50.66012 | -3.68190 | 35995 ft | 474 kts | 259° |
| 2026-05-06 07:25 | 50.64727 | -3.78377 | 35993 ft | 474 kts | 259° |
| 2026-05-06 07:25 | 50.63432 | -3.88567 | 35987 ft | 475 kts | 259° |
| 2026-05-06 07:26 | 50.62735 | -3.98892 | 35988 ft | 474 kts | 271° |
| 2026-05-06 07:26 | 50.62995 | -4.09272 | 36000 ft | 474 kts | 273° |
| 2026-05-06 07:27 | 50.63282 | -4.19647 | 35986 ft | 474 kts | 272° |
| 2026-05-06 07:27 | 50.63535 | -4.30045 | 35996 ft | 474 kts | 272° |
| 2026-05-06 07:28 | 50.63761 | -4.40439 | 35995 ft | 474 kts | 272° |
| 2026-05-06 07:28 | 50.64073 | -4.56003 | 35993 ft | 474 kts | 272° |
| 2026-05-06 07:29 | 50.64273 | -4.66366 | 35989 ft | 473 kts | 272° |
| 2026-05-06 07:29 | 50.64448 | -4.75889 | 35994 ft | 472 kts | 272° |
| 2026-05-06 07:30 | 50.64631 | -4.86243 | 35985 ft | 472 kts | 272° |
| 2026-05-06 07:30 | 50.64804 | -4.96571 | 35988 ft | 471 kts | 271° |
| 2026-05-06 07:31 | 50.64953 | -5.06002 | 35996 ft | 471 kts | 271° |
| 2026-05-06 07:31 | 50.65107 | -5.16276 | 35993 ft | 471 kts | 271° |
| 2026-05-06 07:32 | 50.65255 | -5.26665 | 35994 ft | 471 kts | 271° |
| 2026-05-06 07:32 | 50.65391 | -5.36929 | 35988 ft | 471 kts | 271° |
| 2026-05-06 07:33 | 50.65521 | -5.47251 | 35998 ft | 472 kts | 271° |
| 2026-05-06 07:33 | 50.65643 | -5.57610 | 35999 ft | 472 kts | 271° |
| 2026-05-06 07:34 | 50.65741 | -5.67952 | 36002 ft | 471 kts | 271° |
| 2026-05-06 07:34 | 50.65843 | -5.78256 | 36003 ft | 471 kts | 271° |
| 2026-05-06 07:35 | 50.65937 | -5.88576 | 36007 ft | 471 kts | 271° |
| 2026-05-06 07:35 | 50.66021 | -5.98894 | 36009 ft | 471 kts | 271° |
| 2026-05-06 07:36 | 50.66088 | -6.08509 | 36010 ft | 471 kts | 271° |
| 2026-05-06 07:36 | 50.66151 | -6.18792 | 36011 ft | 471 kts | 271° |
| 2026-05-06 07:37 | 50.66206 | -6.29049 | 36008 ft | 471 kts | 271° |
| 2026-05-06 07:37 | 50.66253 | -6.39388 | 36014 ft | 471 kts | 270° |
| 2026-05-06 07:38 | 50.66290 | -6.49701 | 36020 ft | 470 kts | 270° |
| 2026-05-06 07:38 | 50.66320 | -6.60035 | 36020 ft | 470 kts | 270° |
| 2026-05-06 07:39 | 50.66338 | -6.70277 | 36016 ft | 470 kts | 270° |
| 2026-05-06 07:39 | 50.66346 | -6.80595 | 36026 ft | 470 kts | 270° |
| 2026-05-06 07:40 | 50.66344 | -6.90891 | 36028 ft | 470 kts | 270° |
| 2026-05-06 07:40 | 50.66339 | -7.01226 | 36028 ft | 470 kts | 270° |
| 2026-05-06 07:41 | 50.66324 | -7.10719 | 36029 ft | 470 kts | 270° |
| 2026-05-06 07:41 | 50.66298 | -7.21000 | 36033 ft | 470 kts | 270° |
| 2026-05-06 07:42 | 50.66263 | -7.31307 | 36035 ft | 470 kts | 270° |
| 2026-05-06 07:42 | 50.66289 | -7.41601 | 36033 ft | 468 kts | 275° |
| 2026-05-06 07:43 | 50.67803 | -7.51487 | 36053 ft | 468 kts | 294° |
| 2026-05-06 07:43 | 50.71252 | -7.60135 | 36031 ft | 468 kts | 312° |
| 2026-05-06 07:44 | 50.76285 | -7.66626 | 36032 ft | 470 kts | 330° |
| 2026-05-06 07:44 | 50.82382 | -7.70276 | 36051 ft | 472 kts | 348° |
| 2026-05-06 07:45 | 50.87844 | -7.70861 | 36033 ft | 474 kts | 4° |
| 2026-05-06 07:45 | 50.94266 | -7.68520 | 36049 ft | 476 kts | 22° |
| 2026-05-06 07:46 | 50.99851 | -7.63183 | 36053 ft | 479 kts | 40° |
| 2026-05-06 07:46 | 51.04209 | -7.55208 | 36055 ft | 482 kts | 58° |
| 2026-05-06 07:47 | 51.06809 | -7.45469 | 36043 ft | 484 kts | 76° |
| 2026-05-06 07:47 | 51.07938 | -7.34931 | 36056 ft | 485 kts | 82° |
| 2026-05-06 07:48 | 51.08746 | -7.24218 | 36050 ft | 486 kts | 83° |
| 2026-05-06 07:48 | 51.09506 | -7.13530 | 36043 ft | 487 kts | 83° |
| 2026-05-06 07:49 | 51.10254 | -7.02816 | 36042 ft | 487 kts | 83° |
| 2026-05-06 07:49 | 51.10989 | -6.92118 | 36035 ft | 486 kts | 83° |
| 2026-05-06 07:50 | 51.12484 | -6.70041 | 36035 ft | 485 kts | 83° |
| 2026-05-06 07:51 | 51.13154 | -6.60104 | 36038 ft | 484 kts | 83° |
| 2026-05-06 07:51 | 51.13800 | -6.50453 | 36038 ft | 484 kts | 84° |
| 2026-05-06 07:52 | 51.14510 | -6.39779 | 36049 ft | 485 kts | 83° |
| 2026-05-06 07:52 | 51.15221 | -6.29121 | 36029 ft | 485 kts | 84° |
| 2026-05-06 07:53 | 51.15925 | -6.18418 | 36024 ft | 485 kts | 84° |
| 2026-05-06 07:53 | 51.16624 | -6.07698 | 36019 ft | 486 kts | 84° |
| 2026-05-06 07:54 | 51.17256 | -5.97970 | 36015 ft | 486 kts | 84° |
| 2026-05-06 07:54 | 51.17944 | -5.87315 | 36007 ft | 486 kts | 84° |
| 2026-05-06 07:55 | 51.18633 | -5.76603 | 36007 ft | 486 kts | 84° |
| 2026-05-06 07:55 | 51.19322 | -5.65889 | 36014 ft | 486 kts | 84° |
| 2026-05-06 07:56 | 51.20005 | -5.55178 | 36015 ft | 485 kts | 84° |
| 2026-05-06 07:56 | 51.20681 | -5.44468 | 36007 ft | 485 kts | 84° |
| 2026-05-06 07:57 | 51.21350 | -5.33787 | 36013 ft | 484 kts | 84° |
| 2026-05-06 07:57 | 51.22016 | -5.23081 | 36008 ft | 484 kts | 84° |
| 2026-05-06 07:58 | 51.22676 | -5.12401 | 36008 ft | 484 kts | 84° |
| 2026-05-06 07:58 | 51.23332 | -5.01697 | 36007 ft | 484 kts | 84° |
| 2026-05-06 07:59 | 51.23979 | -4.91064 | 36009 ft | 484 kts | 84° |
| 2026-05-06 07:59 | 51.24766 | -4.80427 | 35968 ft | 481 kts | 74° |
| 2026-05-06 08:00 | 51.26043 | -4.75521 | 36006 ft | 479 kts | 60° |
| 2026-05-06 08:00 | 51.27777 | -4.70974 | 36001 ft | 480 kts | 57° |
| 2026-05-06 08:00 | 51.30789 | -4.61431 | 36009 ft | 483 kts | 70° |
| 2026-05-06 08:01 | 51.32583 | -4.51072 | 36012 ft | 485 kts | 78° |
| 2026-05-06 08:01 | 51.33799 | -4.40446 | 36006 ft | 486 kts | 80° |
| 2026-05-06 08:02 | 51.34934 | -4.29767 | 36000 ft | 487 kts | 80° |
| 2026-05-06 08:02 | 51.35519 | -4.24436 | 35676 ft | 491 kts | 79° |
| 2026-05-06 08:02 | 51.36130 | -4.18981 | 34719 ft | 499 kts | 79° |
| 2026-05-06 08:03 | 51.36747 | -4.13559 | 33877 ft | 486 kts | 79° |
| 2026-05-06 08:03 | 51.37343 | -4.08356 | 33062 ft | 465 kts | 79° |
| 2026-05-06 08:03 | 51.37902 | -4.03484 | 32279 ft | 448 kts | 79° |
| 2026-05-06 08:03 | 51.38455 | -3.98639 | 31486 ft | 437 kts | 79° |
| 2026-05-06 08:04 | 51.38998 | -3.93863 | 30697 ft | 438 kts | 79° |
| 2026-05-06 08:04 | 51.39542 | -3.89054 | 30125 ft | 441 kts | 79° |
| 2026-05-06 08:04 | 51.40089 | -3.84188 | 29532 ft | 444 kts | 79° |
| 2026-05-06 08:04 | 51.40636 | -3.79308 | 28915 ft | 447 kts | 79° |
| 2026-05-06 08:05 | 51.41183 | -3.74391 | 28308 ft | 450 kts | 79° |
| 2026-05-06 08:05 | 51.41731 | -3.69439 | 27691 ft | 451 kts | 79° |
| 2026-05-06 08:05 | 51.42279 | -3.64482 | 27073 ft | 453 kts | 79° |
| 2026-05-06 08:05 | 51.42826 | -3.59504 | 26451 ft | 454 kts | 80° |
| 2026-05-06 08:06 | 51.43371 | -3.54521 | 25836 ft | 454 kts | 80° |
| 2026-05-06 08:06 | 51.43915 | -3.49535 | 25196 ft | 450 kts | 80° |
| 2026-05-06 08:06 | 51.44424 | -3.44839 | 24581 ft | 428 kts | 80° |
| 2026-05-06 08:06 | 51.44920 | -3.40262 | 23993 ft | 406 kts | 80° |
| 2026-05-06 08:07 | 51.45386 | -3.35936 | 23463 ft | 396 kts | 80° |
| 2026-05-06 08:07 | 51.45860 | -3.31526 | 22925 ft | 400 kts | 80° |
| 2026-05-06 08:07 | 51.46337 | -3.27071 | 22375 ft | 408 kts | 80° |
| 2026-05-06 08:07 | 51.46820 | -3.22540 | 21812 ft | 416 kts | 80° |
| 2026-05-06 08:08 | 51.47302 | -3.18000 | 21236 ft | 424 kts | 80° |
| 2026-05-06 08:08 | 51.47798 | -3.13317 | 20625 ft | 420 kts | 80° |
| 2026-05-06 08:08 | 51.48273 | -3.08804 | 20024 ft | 399 kts | 80° |
| 2026-05-06 08:08 | 51.48720 | -3.04544 | 19469 ft | 378 kts | 80° |
| 2026-05-06 08:09 | 51.49148 | -3.00448 | 18952 ft | 367 kts | 80° |
| 2026-05-06 08:09 | 51.49563 | -2.96436 | 18193 ft | 365 kts | 80° |
| 2026-05-06 08:09 | 51.49966 | -2.92469 | 16999 ft | 364 kts | 80° |
| 2026-05-06 08:09 | 51.50378 | -2.88437 | 15521 ft | 367 kts | 80° |
| 2026-05-06 08:10 | 51.50799 | -2.84334 | 14195 ft | 380 kts | 80° |
| 2026-05-06 08:10 | 51.51230 | -2.80130 | 13515 ft | 383 kts | 80° |
| 2026-05-06 08:10 | 51.51660 | -2.75920 | 12995 ft | 381 kts | 80° |
| 2026-05-06 08:10 | 51.51942 | -2.73159 | 12701 ft | 378 kts | 80° |